sensor_id;sensor_type;location;lat;lon;timestamp;temperature;humidity
4312;DHT22;2169;49.086;9.284;2023-04-24T00:02:12;13.40;60.20
4312;DHT22;2169;49.086;9.284;2023-04-24T00:04:41;13.40;60.20
4312;DHT22;2169;49.086;9.284;2023-04-24T00:07:10;13.40;60.30
4312;DHT22;2169;49.086;9.284;2023-04-24T00:09:36;13.40;60.40
4312;DHT22;2169;49.086;9.284;2023-04-24T00:12:03;13.30;60.40
4312;DHT22;2169;49.086;9.284;2023-04-24T00:14:30;13.30;60.40
4312;DHT22;2169;49.086;9.284;2023-04-24T00:16:57;13.30;60.50
4312;DHT22;2169;49.086;9.284;2023-04-24T00:19:24;13.50;61.20
4312;DHT22;2169;49.086;9.284;2023-04-24T00:21:52;13.40;61.00
4312;DHT22;2169;49.086;9.284;2023-04-24T00:24:19;13.40;61.00
4312;DHT22;2169;49.086;9.284;2023-04-24T00:26:46;13.40;61.00
4312;DHT22;2169;49.086;9.284;2023-04-24T00:29:13;13.40;61.00
4312;DHT22;2169;49.086;9.284;2023-04-24T00:31:40;13.40;60.90
4312;DHT22;2169;49.086;9.284;2023-04-24T00:34:06;13.40;61.00
4312;DHT22;2169;49.086;9.284;2023-04-24T00:36:33;13.30;61.00
4312;DHT22;2169;49.086;9.284;2023-04-24T00:39:01;13.30;61.00
4312;DHT22;2169;49.086;9.284;2023-04-24T00:41:29;13.30;61.20
4312;DHT22;2169;49.086;9.284;2023-04-24T00:43:56;13.20;61.20
4312;DHT22;2169;49.086;9.284;2023-04-24T00:46:23;13.20;61.90
4312;DHT22;2169;49.086;9.284;2023-04-24T00:48:50;13.20;61.30
4312;DHT22;2169;49.086;9.284;2023-04-24T00:51:17;13.20;61.40
4312;DHT22;2169;49.086;9.284;2023-04-24T00:53:44;13.20;61.50
4312;DHT22;2169;49.086;9.284;2023-04-24T00:56:12;13.10;61.40
4312;DHT22;2169;49.086;9.284;2023-04-24T00:58:38;13.10;61.50
4312;DHT22;2169;49.086;9.284;2023-04-24T01:01:07;13.10;61.50
4312;DHT22;2169;49.086;9.284;2023-04-24T01:03:34;13.10;61.60
4312;DHT22;2169;49.086;9.284;2023-04-24T01:06:03;13.10;61.60
4312;DHT22;2169;49.086;9.284;2023-04-24T01:08:30;13.10;61.60
4312;DHT22;2169;49.086;9.284;2023-04-24T01:10:57;13.10;61.60
4312;DHT22;2169;49.086;9.284;2023-04-24T01:13:25;13.10;61.60
4312;DHT22;2169;49.086;9.284;2023-04-24T01:15:52;13.10;61.70
4312;DHT22;2169;49.086;9.284;2023-04-24T01:18:19;13.10;61.80
4312;DHT22;2169;49.086;9.284;2023-04-24T01:20:46;13.00;61.70
4312;DHT22;2169;49.086;9.284;2023-04-24T01:23:17;13.00;61.80
4312;DHT22;2169;49.086;9.284;2023-04-24T01:25:43;13.00;61.80
4312;DHT22;2169;49.086;9.284;2023-04-24T01:28:10;13.00;61.80
4312;DHT22;2169;49.086;9.284;2023-04-24T01:30:39;13.00;61.90
4312;DHT22;2169;49.086;9.284;2023-04-24T01:33:06;13.00;62.00
4312;DHT22;2169;49.086;9.284;2023-04-24T01:35:33;13.00;62.00
4312;DHT22;2169;49.086;9.284;2023-04-24T01:38:00;13.00;62.10
4312;DHT22;2169;49.086;9.284;2023-04-24T01:40:28;13.00;62.20
4312;DHT22;2169;49.086;9.284;2023-04-24T01:42:54;13.00;62.20
4312;DHT22;2169;49.086;9.284;2023-04-24T01:45:21;13.10;62.30
4312;DHT22;2169;49.086;9.284;2023-04-24T01:47:49;13.00;62.30
4312;DHT22;2169;49.086;9.284;2023-04-24T01:50:17;13.00;62.30
4312;DHT22;2169;49.086;9.284;2023-04-24T01:52:44;13.00;62.40
4312;DHT22;2169;49.086;9.284;2023-04-24T01:55:11;13.00;62.40
4312;DHT22;2169;49.086;9.284;2023-04-24T01:57:39;13.00;62.40
4312;DHT22;2169;49.086;9.284;2023-04-24T02:00:07;13.00;62.40
4312;DHT22;2169;49.086;9.284;2023-04-24T02:02:34;13.00;62.40
4312;DHT22;2169;49.086;9.284;2023-04-24T02:05:01;13.00;62.40
4312;DHT22;2169;49.086;9.284;2023-04-24T02:07:28;13.00;62.50
4312;DHT22;2169;49.086;9.284;2023-04-24T02:09:55;13.00;62.60
4312;DHT22;2169;49.086;9.284;2023-04-24T02:12:21;13.00;62.50
4312;DHT22;2169;49.086;9.284;2023-04-24T02:14:50;13.00;62.60
4312;DHT22;2169;49.086;9.284;2023-04-24T02:17:16;13.00;62.50
4312;DHT22;2169;49.086;9.284;2023-04-24T02:19:44;13.00;62.50
4312;DHT22;2169;49.086;9.284;2023-04-24T02:22:11;13.00;62.50
4312;DHT22;2169;49.086;9.284;2023-04-24T02:24:38;13.00;62.40
4312;DHT22;2169;49.086;9.284;2023-04-24T02:27:05;12.90;62.40
4312;DHT22;2169;49.086;9.284;2023-04-24T02:29:32;12.90;62.40
4312;DHT22;2169;49.086;9.284;2023-04-24T02:32:00;12.90;62.40
4312;DHT22;2169;49.086;9.284;2023-04-24T02:34:27;12.80;62.30
4312;DHT22;2169;49.086;9.284;2023-04-24T02:36:54;12.80;62.40
4312;DHT22;2169;49.086;9.284;2023-04-24T02:39:20;12.80;62.40
4312;DHT22;2169;49.086;9.284;2023-04-24T02:41:47;12.80;62.50
4312;DHT22;2169;49.086;9.284;2023-04-24T02:44:14;12.80;62.60
4312;DHT22;2169;49.086;9.284;2023-04-24T02:46:42;12.70;62.50
4312;DHT22;2169;49.086;9.284;2023-04-24T02:49:11;12.70;62.50
4312;DHT22;2169;49.086;9.284;2023-04-24T02:51:37;12.70;62.60
4312;DHT22;2169;49.086;9.284;2023-04-24T02:54:06;12.70;62.70
4312;DHT22;2169;49.086;9.284;2023-04-24T02:56:33;12.70;62.70
4312;DHT22;2169;49.086;9.284;2023-04-24T02:59:00;12.70;62.70
4312;DHT22;2169;49.086;9.284;2023-04-24T03:01:27;12.70;62.80
4312;DHT22;2169;49.086;9.284;2023-04-24T03:03:53;12.70;62.80
4312;DHT22;2169;49.086;9.284;2023-04-24T03:06:22;12.60;62.70
4312;DHT22;2169;49.086;9.284;2023-04-24T03:08:48;12.70;62.80
4312;DHT22;2169;49.086;9.284;2023-04-24T03:11:15;12.60;62.70
4312;DHT22;2169;49.086;9.284;2023-04-24T03:13:42;12.60;62.70
4312;DHT22;2169;49.086;9.284;2023-04-24T03:16:08;12.60;62.80
4312;DHT22;2169;49.086;9.284;2023-04-24T03:18:35;12.60;62.70
4312;DHT22;2169;49.086;9.284;2023-04-24T03:21:02;12.70;62.80
4312;DHT22;2169;49.086;9.284;2023-04-24T03:23:31;12.70;62.80
4312;DHT22;2169;49.086;9.284;2023-04-24T03:25:57;12.70;62.70
4312;DHT22;2169;49.086;9.284;2023-04-24T03:28:24;12.70;62.70
4312;DHT22;2169;49.086;9.284;2023-04-24T03:30:51;12.70;62.70
4312;DHT22;2169;49.086;9.284;2023-04-24T03:33:18;12.70;62.80
4312;DHT22;2169;49.086;9.284;2023-04-24T03:35:45;12.70;62.80
4312;DHT22;2169;49.086;9.284;2023-04-24T03:38:11;12.70;62.90
4312;DHT22;2169;49.086;9.284;2023-04-24T03:40:40;12.70;62.90
4312;DHT22;2169;49.086;9.284;2023-04-24T03:43:06;12.70;62.90
4312;DHT22;2169;49.086;9.284;2023-04-24T03:45:33;12.70;62.90
4312;DHT22;2169;49.086;9.284;2023-04-24T03:48:00;12.70;63.00
4312;DHT22;2169;49.086;9.284;2023-04-24T03:50:26;12.70;63.00
4312;DHT22;2169;49.086;9.284;2023-04-24T03:52:54;12.70;63.00
4312;DHT22;2169;49.086;9.284;2023-04-24T03:55:21;12.70;63.10
4312;DHT22;2169;49.086;9.284;2023-04-24T03:57:49;12.70;63.10
4312;DHT22;2169;49.086;9.284;2023-04-24T04:00:16;12.70;63.20
4312;DHT22;2169;49.086;9.284;2023-04-24T04:02:44;12.60;63.10
4312;DHT22;2169;49.086;9.284;2023-04-24T04:05:10;12.60;63.10
4312;DHT22;2169;49.086;9.284;2023-04-24T04:07:37;12.60;63.30
4312;DHT22;2169;49.086;9.284;2023-04-24T04:10:05;12.70;63.50
4312;DHT22;2169;49.086;9.284;2023-04-24T04:12:32;12.60;63.60
4312;DHT22;2169;49.086;9.284;2023-04-24T04:15:00;12.60;63.70
4312;DHT22;2169;49.086;9.284;2023-04-24T04:17:27;12.60;63.90
4312;DHT22;2169;49.086;9.284;2023-04-24T04:19:54;12.60;64.20
4312;DHT22;2169;49.086;9.284;2023-04-24T04:22:21;12.60;64.50
4312;DHT22;2169;49.086;9.284;2023-04-24T04:24:48;12.50;64.60
4312;DHT22;2169;49.086;9.284;2023-04-24T04:27:16;12.50;64.70
4312;DHT22;2169;49.086;9.284;2023-04-24T04:29:44;12.40;64.90
4312;DHT22;2169;49.086;9.284;2023-04-24T04:32:12;12.30;65.10
4312;DHT22;2169;49.086;9.284;2023-04-24T04:34:39;12.30;65.40
4312;DHT22;2169;49.086;9.284;2023-04-24T04:37:06;12.20;65.40
4312;DHT22;2169;49.086;9.284;2023-04-24T04:39:33;12.20;65.70
4312;DHT22;2169;49.086;9.284;2023-04-24T04:42:00;12.20;66.00
4312;DHT22;2169;49.086;9.284;2023-04-24T04:44:27;12.10;66.00
4312;DHT22;2169;49.086;9.284;2023-04-24T04:46:56;12.10;66.10
4312;DHT22;2169;49.086;9.284;2023-04-24T04:49:25;12.10;66.20
4312;DHT22;2169;49.086;9.284;2023-04-24T04:51:54;12.10;66.30
4312;DHT22;2169;49.086;9.284;2023-04-24T04:54:22;12.00;66.30
4312;DHT22;2169;49.086;9.284;2023-04-24T04:56:50;12.00;66.30
4312;DHT22;2169;49.086;9.284;2023-04-24T04:59:17;12.00;66.40
4312;DHT22;2169;49.086;9.284;2023-04-24T05:01:44;12.00;66.40
4312;DHT22;2169;49.086;9.284;2023-04-24T05:04:11;12.00;66.50
4312;DHT22;2169;49.086;9.284;2023-04-24T05:06:39;12.00;66.60
4312;DHT22;2169;49.086;9.284;2023-04-24T05:09:06;12.00;66.60
4312;DHT22;2169;49.086;9.284;2023-04-24T05:11:33;12.00;66.60
4312;DHT22;2169;49.086;9.284;2023-04-24T05:14:00;12.00;66.70
4312;DHT22;2169;49.086;9.284;2023-04-24T05:16:27;12.00;66.70
4312;DHT22;2169;49.086;9.284;2023-04-24T05:18:54;12.00;66.70
4312;DHT22;2169;49.086;9.284;2023-04-24T05:21:21;12.00;66.70
4312;DHT22;2169;49.086;9.284;2023-04-24T05:23:49;12.00;67.40
4312;DHT22;2169;49.086;9.284;2023-04-24T05:26:16;11.90;66.70
4312;DHT22;2169;49.086;9.284;2023-04-24T05:28:43;11.90;66.70
4312;DHT22;2169;49.086;9.284;2023-04-24T05:31:10;11.90;66.60
4312;DHT22;2169;49.086;9.284;2023-04-24T05:33:37;11.90;66.60
4312;DHT22;2169;49.086;9.284;2023-04-24T05:36:06;11.80;66.40
4312;DHT22;2169;49.086;9.284;2023-04-24T05:38:33;11.80;66.40
4312;DHT22;2169;49.086;9.284;2023-04-24T05:41:01;11.80;66.40
4312;DHT22;2169;49.086;9.284;2023-04-24T05:43:28;11.80;66.30
4312;DHT22;2169;49.086;9.284;2023-04-24T05:45:55;11.80;66.20
4312;DHT22;2169;49.086;9.284;2023-04-24T05:48:23;11.80;66.20
4312;DHT22;2169;49.086;9.284;2023-04-24T05:50:50;11.80;66.10
4312;DHT22;2169;49.086;9.284;2023-04-24T05:53:18;11.70;66.00
4312;DHT22;2169;49.086;9.284;2023-04-24T05:55:45;11.70;65.90
4312;DHT22;2169;49.086;9.284;2023-04-24T05:58:13;11.70;65.80
4312;DHT22;2169;49.086;9.284;2023-04-24T06:00:40;11.70;65.80
4312;DHT22;2169;49.086;9.284;2023-04-24T06:03:08;11.70;65.80
4312;DHT22;2169;49.086;9.284;2023-04-24T06:05:35;11.70;65.80
4312;DHT22;2169;49.086;9.284;2023-04-24T06:08:03;11.60;65.60
4312;DHT22;2169;49.086;9.284;2023-04-24T06:10:31;11.70;65.70
4312;DHT22;2169;49.086;9.284;2023-04-24T06:12:57;11.70;65.70
4312;DHT22;2169;49.086;9.284;2023-04-24T06:15:28;11.70;65.70
4312;DHT22;2169;49.086;9.284;2023-04-24T06:17:56;11.80;65.80
4312;DHT22;2169;49.086;9.284;2023-04-24T06:20:23;11.80;65.70
4312;DHT22;2169;49.086;9.284;2023-04-24T06:22:50;11.80;65.60
4312;DHT22;2169;49.086;9.284;2023-04-24T06:25:17;11.90;65.70
4312;DHT22;2169;49.086;9.284;2023-04-24T06:27:46;11.90;65.60
4312;DHT22;2169;49.086;9.284;2023-04-24T06:30:13;12.00;65.70
4312;DHT22;2169;49.086;9.284;2023-04-24T06:32:42;12.00;65.60
4312;DHT22;2169;49.086;9.284;2023-04-24T06:35:09;12.10;66.20
4312;DHT22;2169;49.086;9.284;2023-04-24T06:37:38;12.10;65.40
4312;DHT22;2169;49.086;9.284;2023-04-24T06:40:07;12.10;65.50
4312;DHT22;2169;49.086;9.284;2023-04-24T06:42:34;12.20;65.70
4312;DHT22;2169;49.086;9.284;2023-04-24T06:45:02;12.30;65.80
4312;DHT22;2169;49.086;9.284;2023-04-24T06:47:47;12.40;65.80
4312;DHT22;2169;49.086;9.284;2023-04-24T06:50:14;12.40;65.70
4312;DHT22;2169;49.086;9.284;2023-04-24T06:52:42;12.50;65.70
4312;DHT22;2169;49.086;9.284;2023-04-24T06:55:09;12.50;65.60
4312;DHT22;2169;49.086;9.284;2023-04-24T06:57:37;12.60;65.60
4312;DHT22;2169;49.086;9.284;2023-04-24T07:00:04;12.60;65.40
4312;DHT22;2169;49.086;9.284;2023-04-24T07:02:32;12.60;65.10
4312;DHT22;2169;49.086;9.284;2023-04-24T07:05:02;12.60;65.00
4312;DHT22;2169;49.086;9.284;2023-04-24T07:07:29;12.60;64.90
4312;DHT22;2169;49.086;9.284;2023-04-24T07:09:56;12.70;64.90
4312;DHT22;2169;49.086;9.284;2023-04-24T07:12:23;12.70;64.80
4312;DHT22;2169;49.086;9.284;2023-04-24T07:14:51;12.80;64.60
4312;DHT22;2169;49.086;9.284;2023-04-24T07:17:18;12.90;64.30
4312;DHT22;2169;49.086;9.284;2023-04-24T07:19:45;12.90;64.00
4312;DHT22;2169;49.086;9.284;2023-04-24T07:22:13;12.90;63.60
4312;DHT22;2169;49.086;9.284;2023-04-24T07:24:42;12.90;63.30
4312;DHT22;2169;49.086;9.284;2023-04-24T07:27:09;13.00;63.30
4312;DHT22;2169;49.086;9.284;2023-04-24T07:29:36;13.10;62.90
4312;DHT22;2169;49.086;9.284;2023-04-24T07:32:03;13.10;62.40
4312;DHT22;2169;49.086;9.284;2023-04-24T07:34:31;13.20;62.10
4312;DHT22;2169;49.086;9.284;2023-04-24T07:36:58;13.20;61.70
4312;DHT22;2169;49.086;9.284;2023-04-24T07:39:27;13.30;61.40
4312;DHT22;2169;49.086;9.284;2023-04-24T07:41:54;13.40;61.10
4312;DHT22;2169;49.086;9.284;2023-04-24T07:44:22;13.40;60.70
4312;DHT22;2169;49.086;9.284;2023-04-24T07:46:50;13.50;60.30
4312;DHT22;2169;49.086;9.284;2023-04-24T07:49:17;13.50;59.80
4312;DHT22;2169;49.086;9.284;2023-04-24T07:51:45;13.60;59.50
4312;DHT22;2169;49.086;9.284;2023-04-24T07:54:12;13.60;58.90
4312;DHT22;2169;49.086;9.284;2023-04-24T07:56:40;13.60;58.10
4312;DHT22;2169;49.086;9.284;2023-04-24T07:59:08;13.60;57.10
4312;DHT22;2169;49.086;9.284;2023-04-24T08:01:36;13.60;56.50
4312;DHT22;2169;49.086;9.284;2023-04-24T08:04:03;13.70;56.40
4312;DHT22;2169;49.086;9.284;2023-04-24T08:06:30;13.70;56.40
4312;DHT22;2169;49.086;9.284;2023-04-24T08:08:57;13.80;55.80
4312;DHT22;2169;49.086;9.284;2023-04-24T08:11:25;13.90;55.50
4312;DHT22;2169;49.086;9.284;2023-04-24T08:13:53;14.00;55.40
4312;DHT22;2169;49.086;9.284;2023-04-24T08:16:21;14.10;55.30
4312;DHT22;2169;49.086;9.284;2023-04-24T08:18:49;14.10;55.10
4312;DHT22;2169;49.086;9.284;2023-04-24T08:21:16;14.20;54.60
4312;DHT22;2169;49.086;9.284;2023-04-24T08:23:44;14.20;54.40
4312;DHT22;2169;49.086;9.284;2023-04-24T08:26:12;14.20;54.00
4312;DHT22;2169;49.086;9.284;2023-04-24T08:28:39;14.20;53.90
4312;DHT22;2169;49.086;9.284;2023-04-24T08:31:07;14.20;53.80
4312;DHT22;2169;49.086;9.284;2023-04-24T08:33:34;14.30;53.70
4312;DHT22;2169;49.086;9.284;2023-04-24T08:36:02;14.30;53.20
4312;DHT22;2169;49.086;9.284;2023-04-24T08:38:29;14.30;53.00
4312;DHT22;2169;49.086;9.284;2023-04-24T08:40:57;14.30;52.80
4312;DHT22;2169;49.086;9.284;2023-04-24T08:43:25;14.40;53.10
4312;DHT22;2169;49.086;9.284;2023-04-24T08:45:53;14.40;52.70
4312;DHT22;2169;49.086;9.284;2023-04-24T08:48:23;14.40;52.10
4312;DHT22;2169;49.086;9.284;2023-04-24T08:50:51;14.40;52.00
4312;DHT22;2169;49.086;9.284;2023-04-24T08:53:18;14.40;51.90
4312;DHT22;2169;49.086;9.284;2023-04-24T08:55:47;14.40;51.90
4312;DHT22;2169;49.086;9.284;2023-04-24T08:58:16;14.40;51.90
4312;DHT22;2169;49.086;9.284;2023-04-24T09:00:43;14.40;51.70
4312;DHT22;2169;49.086;9.284;2023-04-24T09:03:13;14.40;51.60
4312;DHT22;2169;49.086;9.284;2023-04-24T09:05:42;14.30;51.70
4312;DHT22;2169;49.086;9.284;2023-04-24T09:08:11;14.30;51.90
4312;DHT22;2169;49.086;9.284;2023-04-24T09:10:40;14.20;51.80
4312;DHT22;2169;49.086;9.284;2023-04-24T09:13:07;14.20;52.00
4312;DHT22;2169;49.086;9.284;2023-04-24T09:15:36;14.20;52.00
4312;DHT22;2169;49.086;9.284;2023-04-24T09:18:04;14.20;52.90
4312;DHT22;2169;49.086;9.284;2023-04-24T09:20:32;14.20;52.40
4312;DHT22;2169;49.086;9.284;2023-04-24T09:23:03;14.20;52.20
4312;DHT22;2169;49.086;9.284;2023-04-24T09:25:31;14.30;52.30
4312;DHT22;2169;49.086;9.284;2023-04-24T09:28:01;14.40;52.10
4312;DHT22;2169;49.086;9.284;2023-04-24T09:30:28;14.40;51.80
4312;DHT22;2169;49.086;9.284;2023-04-24T09:33:12;14.40;51.60
4312;DHT22;2169;49.086;9.284;2023-04-24T09:35:41;14.50;51.40
4312;DHT22;2169;49.086;9.284;2023-04-24T09:38:10;14.50;51.20
4312;DHT22;2169;49.086;9.284;2023-04-24T09:40:37;14.50;50.90
4312;DHT22;2169;49.086;9.284;2023-04-24T09:43:10;14.50;50.60
4312;DHT22;2169;49.086;9.284;2023-04-24T09:45:39;14.50;50.50
4312;DHT22;2169;49.086;9.284;2023-04-24T09:48:09;14.40;50.30
4312;DHT22;2169;49.086;9.284;2023-04-24T09:50:36;14.40;50.00
4312;DHT22;2169;49.086;9.284;2023-04-24T09:53:04;14.30;49.90
4312;DHT22;2169;49.086;9.284;2023-04-24T09:55:39;14.30;50.10
4312;DHT22;2169;49.086;9.284;2023-04-24T09:58:08;14.30;50.00
4312;DHT22;2169;49.086;9.284;2023-04-24T10:00:35;14.30;50.00
4312;DHT22;2169;49.086;9.284;2023-04-24T10:03:03;14.30;50.50
4312;DHT22;2169;49.086;9.284;2023-04-24T10:05:32;14.30;50.00
4312;DHT22;2169;49.086;9.284;2023-04-24T10:08:04;14.30;50.00
4312;DHT22;2169;49.086;9.284;2023-04-24T10:10:32;14.40;50.00
4312;DHT22;2169;49.086;9.284;2023-04-24T10:13:01;14.40;50.00
4312;DHT22;2169;49.086;9.284;2023-04-24T10:15:28;14.50;50.00
4312;DHT22;2169;49.086;9.284;2023-04-24T10:17:57;14.50;50.00
4312;DHT22;2169;49.086;9.284;2023-04-24T10:20:27;14.60;50.20
4312;DHT22;2169;49.086;9.284;2023-04-24T10:22:55;14.60;50.30
4312;DHT22;2169;49.086;9.284;2023-04-24T10:25:26;14.60;50.10
4312;DHT22;2169;49.086;9.284;2023-04-24T10:27:53;14.60;50.10
4312;DHT22;2169;49.086;9.284;2023-04-24T10:30:28;14.60;50.10
4312;DHT22;2169;49.086;9.284;2023-04-24T10:32:55;14.60;50.10
4312;DHT22;2169;49.086;9.284;2023-04-24T10:35:22;14.50;49.70
4312;DHT22;2169;49.086;9.284;2023-04-24T10:37:57;14.50;49.60
4312;DHT22;2169;49.086;9.284;2023-04-24T10:40:27;14.40;49.30
4312;DHT22;2169;49.086;9.284;2023-04-24T10:42:56;14.30;49.30
4312;DHT22;2169;49.086;9.284;2023-04-24T10:45:24;14.30;49.40
4312;DHT22;2169;49.086;9.284;2023-04-24T10:47:56;14.30;49.50
4312;DHT22;2169;49.086;9.284;2023-04-24T10:50:23;14.40;49.60
4312;DHT22;2169;49.086;9.284;2023-04-24T10:52:51;14.40;49.60
4312;DHT22;2169;49.086;9.284;2023-04-24T10:55:42;14.40;49.70
4312;DHT22;2169;49.086;9.284;2023-04-24T10:58:10;14.50;49.80
4312;DHT22;2169;49.086;9.284;2023-04-24T11:00:38;14.50;49.60
4312;DHT22;2169;49.086;9.284;2023-04-24T11:03:09;14.60;49.20
4312;DHT22;2169;49.086;9.284;2023-04-24T11:05:56;14.70;49.10
4312;DHT22;2169;49.086;9.284;2023-04-24T11:08:29;14.70;49.20
4312;DHT22;2169;49.086;9.284;2023-04-24T11:10:59;14.80;49.20
4312;DHT22;2169;49.086;9.284;2023-04-24T11:13:31;14.80;48.90
4312;DHT22;2169;49.086;9.284;2023-04-24T11:16:20;14.80;48.60
4312;DHT22;2169;49.086;9.284;2023-04-24T11:18:52;14.90;48.80
4312;DHT22;2169;49.086;9.284;2023-04-24T11:21:21;14.80;48.70
4312;DHT22;2169;49.086;9.284;2023-04-24T11:23:49;14.80;48.80
4312;DHT22;2169;49.086;9.284;2023-04-24T11:26:22;14.80;48.90
4312;DHT22;2169;49.086;9.284;2023-04-24T11:28:50;14.80;49.00
4312;DHT22;2169;49.086;9.284;2023-04-24T11:31:39;14.90;48.90
4312;DHT22;2169;49.086;9.284;2023-04-24T11:34:10;14.80;48.90
4312;DHT22;2169;49.086;9.284;2023-04-24T11:36:38;14.80;49.10
4312;DHT22;2169;49.086;9.284;2023-04-24T11:39:06;14.70;49.20
4312;DHT22;2169;49.086;9.284;2023-04-24T11:41:33;14.60;48.30
4312;DHT22;2169;49.086;9.284;2023-04-24T11:44:01;14.60;48.30
4312;DHT22;2169;49.086;9.284;2023-04-24T11:46:29;14.50;48.20
4312;DHT22;2169;49.086;9.284;2023-04-24T11:48:58;14.50;48.30
4312;DHT22;2169;49.086;9.284;2023-04-24T11:51:27;14.40;48.30
4312;DHT22;2169;49.086;9.284;2023-04-24T11:53:55;14.40;48.30
4312;DHT22;2169;49.086;9.284;2023-04-24T11:56:23;14.30;48.20
4312;DHT22;2169;49.086;9.284;2023-04-24T11:58:52;14.40;48.40
4312;DHT22;2169;49.086;9.284;2023-04-24T12:01:19;14.40;48.50
4312;DHT22;2169;49.086;9.284;2023-04-24T12:03:48;14.40;48.60
4312;DHT22;2169;49.086;9.284;2023-04-24T12:06:16;14.50;48.80
4312;DHT22;2169;49.086;9.284;2023-04-24T12:08:47;14.50;49.20
4312;DHT22;2169;49.086;9.284;2023-04-24T12:11:16;14.50;48.70
4312;DHT22;2169;49.086;9.284;2023-04-24T12:13:44;14.50;48.80
4312;DHT22;2169;49.086;9.284;2023-04-24T12:16:12;14.50;49.20
4312;DHT22;2169;49.086;9.284;2023-04-24T12:18:43;14.50;50.10
4312;DHT22;2169;49.086;9.284;2023-04-24T12:21:16;14.40;50.30
4312;DHT22;2169;49.086;9.284;2023-04-24T12:23:43;14.30;50.30
4312;DHT22;2169;49.086;9.284;2023-04-24T12:26:16;14.30;50.50
4312;DHT22;2169;49.086;9.284;2023-04-24T12:28:45;14.30;50.50
4312;DHT22;2169;49.086;9.284;2023-04-24T12:31:13;14.30;50.40
4312;DHT22;2169;49.086;9.284;2023-04-24T12:33:40;14.30;50.50
4312;DHT22;2169;49.086;9.284;2023-04-24T12:36:10;14.30;50.50
4312;DHT22;2169;49.086;9.284;2023-04-24T12:38:39;14.30;50.50
4312;DHT22;2169;49.086;9.284;2023-04-24T12:41:12;14.30;50.60
4312;DHT22;2169;49.086;9.284;2023-04-24T12:43:51;14.30;50.40
4312;DHT22;2169;49.086;9.284;2023-04-24T12:46:18;14.30;50.40
4312;DHT22;2169;49.086;9.284;2023-04-24T12:48:45;14.20;50.30
4312;DHT22;2169;49.086;9.284;2023-04-24T12:51:13;14.20;50.40
4312;DHT22;2169;49.086;9.284;2023-04-24T12:53:39;14.20;50.60
4312;DHT22;2169;49.086;9.284;2023-04-24T12:56:06;14.10;50.80
4312;DHT22;2169;49.086;9.284;2023-04-24T12:58:35;14.10;51.00
4312;DHT22;2169;49.086;9.284;2023-04-24T13:01:02;14.10;51.40
4312;DHT22;2169;49.086;9.284;2023-04-24T13:03:29;14.00;51.70
4312;DHT22;2169;49.086;9.284;2023-04-24T13:05:56;13.90;51.70
4312;DHT22;2169;49.086;9.284;2023-04-24T13:08:23;13.80;51.80
4312;DHT22;2169;49.086;9.284;2023-04-24T13:10:50;13.70;52.00
4312;DHT22;2169;49.086;9.284;2023-04-24T13:13:17;13.80;52.40
4312;DHT22;2169;49.086;9.284;2023-04-24T13:15:47;13.80;52.50
4312;DHT22;2169;49.086;9.284;2023-04-24T13:18:14;13.90;52.60
4312;DHT22;2169;49.086;9.284;2023-04-24T13:20:41;14.00;52.50
4312;DHT22;2169;49.086;9.284;2023-04-24T13:23:08;14.00;52.60
4312;DHT22;2169;49.086;9.284;2023-04-24T13:25:36;14.10;51.80
4312;DHT22;2169;49.086;9.284;2023-04-24T13:28:04;14.10;51.60
4312;DHT22;2169;49.086;9.284;2023-04-24T13:30:31;14.20;51.50
4312;DHT22;2169;49.086;9.284;2023-04-24T13:33:01;14.20;51.30
4312;DHT22;2169;49.086;9.284;2023-04-24T13:35:29;14.20;51.20
4312;DHT22;2169;49.086;9.284;2023-04-24T13:37:57;14.20;51.30
4312;DHT22;2169;49.086;9.284;2023-04-24T13:40:24;14.30;51.20
4312;DHT22;2169;49.086;9.284;2023-04-24T13:42:51;14.30;51.10
4312;DHT22;2169;49.086;9.284;2023-04-24T13:45:17;14.40;51.00
4312;DHT22;2169;49.086;9.284;2023-04-24T13:47:44;14.40;50.70
4312;DHT22;2169;49.086;9.284;2023-04-24T13:50:13;14.40;50.50
4312;DHT22;2169;49.086;9.284;2023-04-24T13:52:40;14.50;50.50
4312;DHT22;2169;49.086;9.284;2023-04-24T13:55:08;14.50;50.20
4312;DHT22;2169;49.086;9.284;2023-04-24T13:57:35;14.50;49.80
4312;DHT22;2169;49.086;9.284;2023-04-24T14:00:02;14.50;49.60
4312;DHT22;2169;49.086;9.284;2023-04-24T14:02:30;14.50;49.50
4312;DHT22;2169;49.086;9.284;2023-04-24T14:04:57;14.50;49.60
4312;DHT22;2169;49.086;9.284;2023-04-24T14:07:25;14.50;49.50
4312;DHT22;2169;49.086;9.284;2023-04-24T14:09:52;14.60;49.60
4312;DHT22;2169;49.086;9.284;2023-04-24T14:12:19;14.60;49.60
4312;DHT22;2169;49.086;9.284;2023-04-24T14:14:46;14.60;49.50
4312;DHT22;2169;49.086;9.284;2023-04-24T14:17:13;14.70;49.30
4312;DHT22;2169;49.086;9.284;2023-04-24T14:19:40;14.70;49.00
4312;DHT22;2169;49.086;9.284;2023-04-24T14:22:07;14.70;48.80
4312;DHT22;2169;49.086;9.284;2023-04-24T14:24:36;14.70;48.60
4312;DHT22;2169;49.086;9.284;2023-04-24T14:27:03;14.70;48.40
4312;DHT22;2169;49.086;9.284;2023-04-24T14:29:31;14.70;48.50
4312;DHT22;2169;49.086;9.284;2023-04-24T14:31:58;14.70;48.50
4312;DHT22;2169;49.086;9.284;2023-04-24T14:34:25;14.80;48.60
4312;DHT22;2169;49.086;9.284;2023-04-24T14:36:52;14.90;48.60
4312;DHT22;2169;49.086;9.284;2023-04-24T14:39:20;15.00;48.50
4312;DHT22;2169;49.086;9.284;2023-04-24T14:41:48;15.10;48.30
4312;DHT22;2169;49.086;9.284;2023-04-24T14:44:15;15.20;48.30
4312;DHT22;2169;49.086;9.284;2023-04-24T14:46:42;15.20;48.40
4312;DHT22;2169;49.086;9.284;2023-04-24T14:49:10;15.30;48.60
4312;DHT22;2169;49.086;9.284;2023-04-24T14:51:37;15.30;48.60
4312;DHT22;2169;49.086;9.284;2023-04-24T14:54:06;15.30;48.60
4312;DHT22;2169;49.086;9.284;2023-04-24T14:56:33;15.30;48.80
4312;DHT22;2169;49.086;9.284;2023-04-24T14:59:02;15.30;48.80
4312;DHT22;2169;49.086;9.284;2023-04-24T15:01:29;15.20;48.60
4312;DHT22;2169;49.086;9.284;2023-04-24T15:03:56;15.30;48.80
4312;DHT22;2169;49.086;9.284;2023-04-24T15:06:23;15.30;49.00
4312;DHT22;2169;49.086;9.284;2023-04-24T15:08:50;15.20;48.70
4312;DHT22;2169;49.086;9.284;2023-04-24T15:11:17;15.20;48.70
4312;DHT22;2169;49.086;9.284;2023-04-24T15:13:45;15.20;48.70
4312;DHT22;2169;49.086;9.284;2023-04-24T15:16:13;15.20;48.70
4312;DHT22;2169;49.086;9.284;2023-04-24T15:18:40;15.20;49.30
4312;DHT22;2169;49.086;9.284;2023-04-24T15:21:07;15.20;48.80
4312;DHT22;2169;49.086;9.284;2023-04-24T15:23:35;15.30;49.10
4312;DHT22;2169;49.086;9.284;2023-04-24T15:26:02;15.30;49.20
4312;DHT22;2169;49.086;9.284;2023-04-24T15:28:29;15.40;49.10
4312;DHT22;2169;49.086;9.284;2023-04-24T15:30:55;15.50;48.80
4312;DHT22;2169;49.086;9.284;2023-04-24T15:33:24;15.50;48.20
4312;DHT22;2169;49.086;9.284;2023-04-24T15:35:52;15.50;48.00
4312;DHT22;2169;49.086;9.284;2023-04-24T15:38:19;15.50;48.10
4312;DHT22;2169;49.086;9.284;2023-04-24T15:40:46;15.50;48.20
4312;DHT22;2169;49.086;9.284;2023-04-24T15:43:14;15.50;47.90
4312;DHT22;2169;49.086;9.284;2023-04-24T15:45:41;15.50;47.80
4312;DHT22;2169;49.086;9.284;2023-04-24T15:48:09;15.50;47.80
4312;DHT22;2169;49.086;9.284;2023-04-24T15:50:37;15.50;47.60
4312;DHT22;2169;49.086;9.284;2023-04-24T15:53:04;15.50;47.00
4312;DHT22;2169;49.086;9.284;2023-04-24T15:55:32;15.30;46.80
4312;DHT22;2169;49.086;9.284;2023-04-24T15:57:59;15.30;46.80
4312;DHT22;2169;49.086;9.284;2023-04-24T16:00:26;15.30;47.00
4312;DHT22;2169;49.086;9.284;2023-04-24T16:02:59;15.30;47.00
4312;DHT22;2169;49.086;9.284;2023-04-24T16:05:26;15.30;47.10
4312;DHT22;2169;49.086;9.284;2023-04-24T16:07:55;15.30;47.20